createdAt,value
2023-04-28T00:01:46.490Z,73.28
2023-04-28T00:06:49.791Z,73.43
2023-04-28T00:11:53.102Z,73.71
2023-04-28T00:16:58.679Z,73.75
2023-04-28T00:22:05.247Z,73.61
2023-04-28T00:27:08.381Z,73.74
2023-04-28T00:32:12.014Z,74.00
2023-04-28T00:37:15.289Z,74.32
2023-04-28T00:42:18.385Z,74.26
2023-04-28T00:47:22.205Z,74.36
2023-04-28T00:52:25.657Z,75.13
2023-04-28T00:57:30.085Z,75.23
2023-04-28T01:02:33.902Z,75.33
2023-04-28T01:07:37.508Z,75.78
2023-04-28T01:12:40.607Z,75.82
2023-04-28T01:17:44.526Z,75.77
2023-04-28T01:22:47.748Z,75.46
2023-04-28T01:27:51.272Z,75.55
2023-04-28T01:32:54.474Z,75.55
2023-04-28T01:37:58.001Z,75.82
2023-04-28T01:43:01.199Z,75.73
2023-04-28T01:48:04.673Z,75.79
2023-04-28T01:53:08.025Z,75.86
2023-04-28T01:58:11.231Z,75.61
2023-04-28T02:03:14.585Z,75.36
2023-04-28T02:08:17.989Z,75.56
2023-04-28T02:13:21.366Z,75.40
2023-04-28T02:18:24.773Z,75.54
2023-04-28T02:23:27.984Z,75.63
2023-04-28T02:28:31.406Z,75.67
2023-04-28T02:33:38.400Z,75.75
2023-04-28T02:38:42.009Z,75.79
2023-04-28T02:43:45.184Z,75.96
2023-04-28T02:48:48.225Z,75.99
2023-04-28T02:53:51.455Z,76.38
2023-04-28T02:58:54.645Z,76.42
2023-04-28T03:03:57.918Z,76.43
2023-04-28T03:09:01.468Z,76.25
2023-04-28T03:14:04.687Z,76.17
2023-04-28T03:19:07.993Z,75.96
2023-04-28T03:24:11.197Z,75.77
2023-04-28T03:29:14.518Z,75.88
2023-04-28T03:34:18.078Z,76.79
2023-04-28T03:39:21.659Z,77.28
2023-04-28T03:44:24.848Z,77.92
2023-04-28T03:49:28.068Z,78.64
2023-04-28T03:54:31.497Z,79.39
2023-04-28T03:59:34.885Z,79.22
2023-04-28T04:04:38.423Z,78.68
2023-04-28T04:09:42.156Z,78.33
2023-04-28T04:14:45.347Z,78.14
2023-04-28T04:19:48.546Z,78.06
2023-04-28T04:24:51.961Z,78.58
2023-04-28T04:29:55.083Z,78.97
2023-04-28T04:34:58.267Z,79.44
2023-04-28T04:40:01.435Z,79.89
2023-04-28T04:45:05.506Z,80.25
2023-04-28T04:50:09.579Z,80.43
2023-04-28T04:55:12.752Z,80.57
2023-04-28T05:00:17.223Z,81.14
2023-04-28T05:05:22.053Z,81.05
2023-04-28T05:10:26.171Z,80.68
2023-04-28T05:15:29.785Z,79.89
2023-04-28T05:20:32.910Z,80.29
2023-04-28T05:25:36.300Z,79.37
2023-04-28T05:30:39.511Z,78.21
2023-04-28T05:35:42.720Z,78.13
2023-04-28T05:40:46.156Z,77.18
2023-04-28T05:45:49.663Z,75.25
2023-04-28T05:50:53.164Z,74.20
2023-04-28T05:55:56.290Z,73.00
2023-04-28T06:01:00.104Z,72.33
2023-04-28T06:06:05.223Z,70.75
2023-04-28T06:11:10.093Z,70.04
2023-04-28T06:16:13.338Z,69.36
2023-04-28T06:21:17.748Z,67.86
2023-04-28T06:26:21.152Z,67.60
2023-04-28T06:31:24.420Z,67.24
2023-04-28T06:36:30.535Z,66.71
2023-04-28T06:41:33.864Z,66.58
2023-04-28T06:46:37.803Z,65.74
2023-04-28T06:51:41.186Z,64.36
2023-04-28T06:56:45.013Z,62.77
2023-04-28T07:01:48.255Z,62.46
2023-04-28T07:06:52.566Z,61.90
2023-04-28T07:11:55.706Z,61.15
2023-04-28T07:16:59.595Z,58.25
2023-04-28T07:22:02.724Z,58.43
2023-04-28T07:27:06.216Z,57.08
2023-04-28T07:32:10.926Z,56.25
2023-04-28T07:37:14.274Z,57.21
2023-04-28T07:42:19.231Z,56.74
2023-04-28T07:47:22.636Z,56.72
2023-04-28T07:52:25.845Z,55.49
2023-04-28T07:57:29.660Z,54.65
2023-04-28T08:02:34.686Z,53.94
2023-04-28T08:07:38.137Z,53.12
2023-04-28T08:12:41.638Z,52.09
2023-04-28T08:17:44.929Z,51.38
2023-04-28T08:22:48.471Z,48.31
2023-04-28T08:27:51.875Z,48.94
2023-04-28T08:32:55.102Z,49.46
2023-04-28T08:37:58.712Z,48.84
2023-04-28T08:43:01.809Z,46.97
2023-04-28T08:48:06.082Z,43.78
2023-04-28T08:53:12.474Z,43.67
2023-04-28T08:58:15.839Z,43.76
2023-04-28T09:08:22.461Z,43.47
2023-04-28T09:13:26.693Z,42.65
2023-04-28T09:18:33.386Z,41.60
2023-04-28T09:23:52.377Z,41.90
2023-04-28T09:29:13.805Z,41.31
2023-04-28T09:34:17.100Z,39.42
2023-04-28T09:39:31.977Z,39.10
2023-04-28T09:44:35.117Z,38.56
2023-04-28T09:49:58.370Z,38.07
2023-04-28T09:55:08.984Z,37.63
2023-04-28T10:00:13.002Z,36.94
2023-04-28T10:05:17.369Z,37.28
2023-04-28T10:10:21.465Z,38.39
2023-04-28T10:15:24.667Z,38.50
2023-04-28T10:20:31.432Z,38.36
2023-04-28T10:25:37.278Z,37.38
2023-04-28T10:30:40.560Z,34.37
2023-04-28T10:35:47.990Z,33.29
2023-04-28T10:41:01.804Z,33.47
2023-04-28T10:46:07.755Z,35.04
2023-04-28T10:51:13.134Z,35.65
2023-04-28T10:56:27.855Z,36.26
2023-04-28T11:01:34.988Z,36.37
2023-04-28T11:06:47.122Z,35.61
2023-04-28T11:12:08.228Z,36.06
2023-04-28T11:17:14.018Z,34.60
2023-04-28T11:22:23.671Z,39.24
2023-04-28T11:27:29.246Z,36.86
2023-04-28T11:32:35.293Z,34.46
2023-04-28T11:37:39.278Z,37.00
2023-04-28T11:42:49.616Z,35.97
2023-04-28T11:47:52.791Z,34.50
2023-04-28T11:52:56.119Z,33.72
2023-04-28T11:58:25.504Z,33.65
2023-04-28T12:03:28.975Z,34.25
2023-04-28T12:08:32.512Z,32.79
2023-04-28T12:13:36.621Z,31.75
2023-04-28T12:19:04.901Z,33.79
2023-04-28T12:24:21.617Z,33.74
2023-04-28T12:29:42.284Z,34.78
2023-04-28T12:34:47.149Z,34.60
2023-04-28T12:39:50.541Z,35.65
2023-04-28T12:44:53.749Z,35.50
2023-04-28T12:49:56.893Z,33.88
2023-04-28T12:55:00.681Z,33.94
2023-04-28T13:00:06.528Z,33.51
2023-04-28T13:05:10.845Z,33.17
2023-04-28T13:10:14.212Z,32.72
2023-04-28T13:15:17.333Z,33.65
2023-04-28T13:20:20.561Z,33.67
2023-04-28T13:25:23.823Z,34.91
2023-04-28T13:30:27.041Z,32.82
2023-04-28T13:35:30.244Z,33.13
2023-04-28T13:40:34.891Z,36.22
2023-04-28T13:45:38.104Z,36.63
2023-04-28T13:50:41.509Z,33.55
2023-04-28T13:55:45.851Z,30.37
2023-04-28T14:00:49.272Z,29.70
2023-04-28T14:05:55.963Z,29.32
2023-04-28T14:10:59.171Z,29.71
2023-04-28T14:16:02.591Z,31.87
2023-04-28T14:21:08.578Z,31.32
2023-04-28T14:26:12.283Z,30.10
2023-04-28T14:31:15.483Z,29.56
2023-04-28T14:36:18.689Z,28.14
2023-04-28T14:41:21.987Z,26.99
2023-04-28T14:46:25.561Z,27.32
2023-04-28T14:51:29.530Z,27.50
2023-04-28T14:56:33.873Z,28.17
2023-04-28T15:01:37.996Z,28.74
2023-04-28T15:06:41.508Z,27.98
2023-04-28T15:11:45.024Z,27.32
2023-04-28T15:16:48.965Z,28.07
2023-04-28T15:21:52.382Z,27.03
2023-04-28T15:26:55.783Z,27.09
2023-04-28T15:31:59.988Z,27.72
2023-04-28T15:37:29.481Z,28.00
2023-04-28T15:42:33.095Z,27.47
2023-04-28T15:47:39.398Z,27.89
2023-04-28T15:52:47.666Z,27.72
2023-04-28T15:57:53.139Z,26.85
2023-04-28T16:02:56.997Z,27.39
2023-04-28T16:08:01.494Z,28.52
2023-04-28T16:13:06.546Z,27.94
2023-04-28T16:18:10.302Z,27.38
2023-04-28T16:23:14.143Z,28.33
2023-04-28T16:28:18.026Z,27.52
2023-04-28T16:33:21.340Z,27.50
2023-04-28T16:38:24.675Z,27.33
2023-04-28T16:43:27.842Z,29.11
2023-04-28T16:48:31.360Z,28.89
2023-04-28T16:53:34.577Z,29.11
2023-04-28T16:58:37.886Z,29.35
2023-04-28T17:03:42.340Z,29.91
2023-04-28T17:08:45.696Z,30.13
2023-04-28T17:13:48.876Z,30.88
2023-04-28T17:18:53.371Z,32.01
2023-04-28T17:23:58.323Z,31.88
2023-04-28T17:29:02.506Z,32.20
2023-04-28T17:34:05.772Z,34.22
2023-04-28T17:39:09.793Z,34.85
2023-04-28T17:44:13.537Z,35.70
2023-04-28T17:49:16.927Z,37.38
2023-04-28T17:54:20.077Z,38.64
2023-04-28T17:59:23.344Z,39.14
2023-04-28T18:04:27.229Z,38.94
2023-04-28T18:09:32.015Z,39.88
2023-04-28T18:14:35.461Z,41.89
2023-04-28T18:19:38.733Z,41.53
2023-04-28T18:24:42.153Z,41.97
2023-04-28T18:29:45.372Z,43.53
2023-04-28T18:34:49.753Z,44.37
2023-04-28T18:39:59.428Z,44.49
2023-04-28T18:45:04.634Z,44.85
2023-04-28T18:50:08.922Z,44.69
2023-04-28T18:55:12.276Z,45.55
2023-04-28T19:00:16.711Z,45.72
2023-04-28T19:05:19.905Z,46.72
2023-04-28T19:10:23.525Z,46.69
2023-04-28T19:15:27.765Z,47.27
2023-04-28T19:20:30.967Z,48.21
2023-04-28T19:25:37.128Z,49.63
2023-04-28T19:30:40.578Z,50.26
2023-04-28T19:35:43.868Z,50.76
2023-04-28T19:40:47.487Z,51.13
2023-04-28T19:45:50.773Z,51.22
2023-04-28T19:50:54.656Z,51.41
2023-04-28T19:56:02.264Z,51.38
2023-04-28T20:01:08.987Z,52.13
2023-04-28T20:06:17.752Z,52.81
2023-04-28T20:11:21.003Z,53.59
2023-04-28T20:16:25.260Z,54.32
2023-04-28T20:21:29.055Z,54.53
2023-04-28T20:26:33.990Z,54.35
2023-04-28T20:31:37.530Z,54.51
2023-04-28T20:36:42.670Z,55.37
2023-04-28T20:41:46.181Z,55.99
2023-04-28T20:46:49.427Z,56.01
2023-04-28T20:51:52.817Z,56.22
2023-04-28T20:56:56.102Z,56.40
2023-04-28T21:01:59.693Z,56.49
2023-04-28T21:07:03.235Z,56.69
2023-04-28T21:12:06.960Z,56.97
2023-04-28T21:17:10.265Z,56.29
2023-04-28T21:22:14.505Z,57.14
2023-04-28T21:27:17.814Z,57.60
2023-04-28T21:32:21.132Z,58.22
2023-04-28T21:37:25.980Z,58.63
2023-04-28T21:42:32.054Z,58.73
2023-04-28T21:47:35.417Z,58.97
2023-04-28T21:52:39.702Z,59.04
2023-04-28T21:57:42.903Z,59.38
2023-04-28T22:02:46.360Z,60.03
2023-04-28T22:07:50.174Z,60.71
2023-04-28T22:12:53.347Z,60.85
2023-04-28T22:17:56.618Z,61.04
2023-04-28T22:23:00.505Z,60.94
2023-04-28T22:28:03.896Z,61.54
2023-04-28T22:33:07.207Z,61.69
2023-04-28T22:38:10.533Z,61.78
2023-04-28T22:43:13.739Z,62.07
2023-04-28T22:48:17.167Z,62.35
2023-04-28T22:53:20.773Z,62.69
2023-04-28T22:58:23.995Z,63.30
2023-04-28T23:03:27.687Z,64.23
2023-04-28T23:08:31.199Z,64.39
2023-04-28T23:13:35.165Z,64.64
2023-04-28T23:18:38.344Z,64.65
2023-04-28T23:23:41.456Z,64.61
2023-04-28T23:28:44.957Z,64.95
2023-04-28T23:33:48.277Z,65.04
2023-04-28T23:38:51.386Z,65.08
2023-04-28T23:43:54.485Z,65.90
2023-04-28T23:48:58.008Z,65.40
2023-04-28T23:54:02.049Z,65.03
2023-04-28T23:59:05.743Z,64.96
